Terminal Aerodrome Forecast
Issued by NWS Wichita, KS

Home | Current Version | Previous Version | Graphics & Text | Print | Product List | Glossary On
Versions: 1 2 3 4 5 6 7 8 9 10 11 12 13 14 15 16 17 18 19 20 21 22 23 24 25 26 27
000
FTUS43 KICT 270144 AAA
TAFICT
TAF AMD
KICT 270144Z 2702/2724 VRB06KT P6SM VCTS SCT050CB BKN080
     FM270500 VRB05KT P6SM BKN120
     FM271000 VRB04KT 4SM BR FEW150
     FM271400 12006KT P6SM FEW030
     FM272200 13011KT P6SM VCTS SCT050CB BKN120=

USA.gov is the U.S. government's official web portal to all federal, state and local government web resources and services.